createdAt,value
2023-01-08T00:01:30.152Z,11.60
2023-01-08T00:03:57.079Z,11.50
2023-01-08T00:06:25.408Z,11.30
2023-01-08T00:08:52.255Z,11.50
2023-01-08T00:11:19.151Z,11.50
2023-01-08T00:13:46.111Z,11.50
2023-01-08T00:16:16.570Z,11.50
2023-01-08T00:18:44.668Z,11.40
2023-01-08T00:21:12.545Z,11.40
2023-01-08T00:23:39.745Z,11.40
2023-01-08T00:26:09.465Z,11.30
2023-01-08T00:28:37.458Z,11.30
2023-01-08T00:31:06.206Z,11.20
2023-01-08T00:33:33.310Z,11.30
2023-01-08T00:36:00.366Z,11.00
2023-01-08T00:38:28.803Z,11.10
2023-01-08T00:40:56.143Z,11.20
2023-01-08T00:43:23.343Z,11.10
2023-01-08T00:45:53.889Z,11.30
2023-01-08T00:48:22.589Z,11.20
2023-01-08T00:50:54.094Z,11.10
2023-01-08T00:53:22.071Z,11.20
2023-01-08T00:55:49.490Z,11.20
2023-01-08T00:58:16.888Z,11.10
2023-01-08T01:00:43.847Z,11.00
2023-01-08T01:03:10.706Z,11.00
2023-01-08T01:05:37.645Z,11.00
2023-01-08T01:08:04.839Z,11.10
2023-01-08T01:10:32.049Z,11.00
2023-01-08T01:12:59.084Z,11.10
2023-01-08T01:15:26.061Z,10.90
2023-01-08T01:17:52.899Z,11.00
2023-01-08T01:20:19.762Z,11.00
2023-01-08T01:22:46.839Z,10.90
2023-01-08T01:25:13.802Z,10.80
2023-01-08T01:27:42.119Z,10.90
2023-01-08T01:30:09.872Z,10.90
2023-01-08T01:32:36.658Z,10.90
2023-01-08T01:35:04.098Z,10.80
2023-01-08T01:37:30.901Z,10.80
2023-01-08T01:39:58.125Z,10.90
2023-01-08T01:42:40.109Z,11.00
2023-01-08T01:45:23.533Z,11.10
2023-01-08T01:48:03.983Z,11.10
2023-01-08T01:50:43.663Z,11.00
2023-01-08T01:53:19.628Z,11.20
2023-01-08T01:55:47.858Z,11.10
2023-01-08T01:58:32.938Z,11.10
2023-01-08T02:01:05.123Z,11.00
2023-01-08T02:03:36.257Z,11.00
2023-01-08T02:06:38.423Z,11.00
2023-01-08T02:09:23.571Z,11.00
2023-01-08T02:12:10.417Z,11.00
2023-01-08T02:14:55.282Z,11.00
2023-01-08T02:17:42.455Z,10.90
2023-01-08T02:20:18.200Z,11.00
2023-01-08T02:23:05.698Z,10.80
2023-01-08T02:25:35.241Z,10.90
2023-01-08T02:28:05.993Z,10.80
2023-01-08T02:30:33.232Z,10.90
2023-01-08T02:33:00.075Z,11.00
2023-01-08T02:35:42.471Z,11.00
2023-01-08T02:38:14.091Z,10.90
2023-01-08T02:41:03.531Z,11.00
2023-01-08T02:43:39.963Z,10.80
2023-01-08T02:46:10.931Z,10.70
2023-01-08T02:48:49.253Z,10.60
2023-01-08T02:51:20.038Z,10.60
2023-01-08T02:53:50.288Z,10.60
2023-01-08T02:56:25.104Z,10.60
2023-01-08T02:58:54.043Z,10.50
2023-01-08T03:01:23.100Z,10.50
2023-01-08T03:03:54.725Z,10.50
2023-01-08T03:06:22.603Z,10.40
2023-01-08T03:08:52.218Z,10.30
2023-01-08T03:11:21.793Z,10.40
2023-01-08T03:14:04.704Z,10.30
2023-01-08T03:16:42.058Z,10.50
2023-01-08T03:19:22.973Z,10.40
2023-01-08T03:21:52.336Z,10.20
2023-01-08T03:24:27.046Z,10.30
2023-01-08T03:26:58.476Z,10.10
2023-01-08T03:29:27.778Z,10.00
2023-01-08T03:31:58.715Z,10.00
2023-01-08T03:34:27.112Z,10.00
2023-01-08T03:36:58.660Z,10.00
2023-01-08T03:39:28.761Z,9.80
2023-01-08T03:42:00.352Z,9.90
2023-01-08T03:44:27.343Z,10.00
2023-01-08T03:46:56.804Z,10.00
2023-01-08T03:49:27.288Z,10.00
2023-01-08T03:51:54.380Z,10.10
2023-01-08T03:54:25.835Z,10.00
2023-01-08T03:56:52.982Z,10.10
2023-01-08T03:59:19.929Z,9.90
2023-01-08T04:01:46.988Z,10.00
2023-01-08T04:04:14.099Z,9.90
2023-01-08T04:06:40.985Z,9.90
2023-01-08T04:09:07.861Z,9.80
2023-01-08T04:11:37.834Z,9.70
2023-01-08T04:14:04.784Z,9.70
2023-01-08T04:16:31.819Z,9.70
2023-01-08T04:18:58.765Z,9.80
2023-01-08T04:21:25.810Z,9.70
2023-01-08T04:23:52.828Z,9.70
2023-01-08T04:26:19.765Z,9.70
2023-01-08T04:28:47.253Z,9.60
2023-01-08T04:31:14.228Z,9.60
2023-01-08T04:33:41.112Z,9.60
2023-01-08T04:36:08.107Z,9.60
2023-01-08T04:38:35.186Z,9.50
2023-01-08T04:41:02.887Z,9.50
2023-01-08T04:43:30.963Z,9.50
2023-01-08T04:46:03.083Z,9.40
2023-01-08T04:48:31.208Z,9.40
2023-01-08T04:51:00.212Z,9.50
2023-01-08T04:53:27.835Z,9.40
2023-01-08T04:55:54.926Z,9.40
2023-01-08T04:58:22.589Z,9.30
2023-01-08T05:00:49.517Z,9.40
2023-01-08T05:03:16.534Z,9.50
2023-01-08T05:05:43.412Z,9.50
2023-01-08T05:08:10.314Z,9.60
2023-01-08T05:10:37.099Z,9.50
2023-01-08T05:13:04.129Z,9.50
2023-01-08T05:15:31.169Z,9.50
2023-01-08T05:18:03.107Z,9.50
2023-01-08T05:20:30.551Z,9.50
2023-01-08T05:22:58.501Z,9.50
2023-01-08T05:25:25.761Z,9.50
2023-01-08T05:27:53.695Z,9.40
2023-01-08T05:30:20.626Z,9.30
2023-01-08T05:32:47.576Z,9.40
2023-01-08T05:35:14.407Z,9.40
2023-01-08T05:37:41.409Z,9.40
2023-01-08T05:40:08.799Z,9.40
2023-01-08T05:42:36.764Z,9.50
2023-01-08T05:45:08.022Z,9.50
2023-01-08T05:47:35.531Z,9.40
2023-01-08T05:50:02.858Z,9.50
2023-01-08T05:52:30.155Z,9.60
2023-01-08T05:54:57.155Z,9.50
2023-01-08T05:57:24.065Z,9.60
2023-01-08T05:59:50.932Z,9.70
2023-01-08T06:02:17.922Z,9.80
2023-01-08T06:04:44.819Z,9.80
2023-01-08T06:07:11.857Z,9.60
2023-01-08T06:09:38.714Z,9.70
2023-01-08T06:12:05.937Z,9.70
2023-01-08T06:14:32.969Z,9.60
2023-01-08T06:16:59.763Z,9.60
2023-01-08T06:19:26.604Z,9.50
2023-01-08T06:21:53.717Z,9.50
2023-01-08T06:24:20.692Z,9.50
2023-01-08T06:26:47.698Z,9.60
2023-01-08T06:29:15.117Z,9.60
2023-01-08T06:31:42.642Z,9.60
2023-01-08T06:34:09.686Z,9.50
2023-01-08T06:36:36.782Z,9.50
2023-01-08T06:39:06.520Z,9.50
2023-01-08T06:41:34.213Z,9.40
2023-01-08T06:44:01.139Z,9.40
2023-01-08T06:46:28.007Z,9.40
2023-01-08T06:48:55.029Z,9.40
2023-01-08T06:51:22.027Z,9.20
2023-01-08T06:53:49.486Z,9.20
2023-01-08T06:56:16.416Z,9.40
2023-01-08T06:58:43.908Z,9.40
2023-01-08T07:01:20.467Z,9.40
2023-01-08T07:03:47.447Z,9.40
2023-01-08T07:06:19.561Z,9.50
2023-01-08T07:08:47.331Z,9.50
2023-01-08T07:11:15.197Z,9.50
2023-01-08T07:13:42.587Z,9.50
2023-01-08T07:16:11.896Z,9.60
2023-01-08T07:18:39.386Z,9.60
2023-01-08T07:21:07.761Z,9.50
2023-01-08T07:23:38.477Z,9.50
2023-01-08T07:26:07.600Z,9.50
2023-01-08T07:28:34.666Z,9.50
2023-01-08T07:31:06.252Z,9.50
2023-01-08T07:33:33.771Z,9.40
2023-01-08T07:36:01.061Z,9.40
2023-01-08T07:38:27.966Z,9.30
2023-01-08T07:40:54.943Z,9.30
2023-01-08T07:43:21.895Z,9.10
2023-01-08T07:45:48.730Z,9.10
2023-01-08T07:48:16.568Z,9.00
2023-01-08T07:50:44.256Z,9.20
2023-01-08T07:53:12.888Z,9.20
2023-01-08T07:55:39.939Z,9.30
2023-01-08T07:58:12.047Z,9.30
2023-01-08T08:00:39.711Z,9.30
2023-01-08T08:03:13.792Z,9.30
2023-01-08T08:05:40.757Z,9.30
2023-01-08T08:08:12.207Z,9.30
2023-01-08T08:10:40.541Z,9.20
2023-01-08T08:13:07.847Z,9.20
2023-01-08T08:15:36.396Z,9.20
2023-01-08T08:18:03.676Z,9.20
2023-01-08T08:20:30.754Z,9.20
2023-01-08T08:23:08.972Z,9.10
2023-01-08T08:25:36.969Z,9.30
2023-01-08T08:28:05.805Z,9.30
2023-01-08T08:30:35.185Z,9.30
2023-01-08T08:33:04.508Z,9.20
2023-01-08T08:35:33.459Z,9.40
2023-01-08T08:38:00.954Z,9.50
2023-01-08T08:40:28.663Z,9.40
2023-01-08T08:42:56.896Z,9.40
2023-01-08T08:45:24.042Z,9.50
2023-01-08T08:47:51.114Z,9.50
2023-01-08T08:50:19.125Z,9.60
2023-01-08T08:52:49.097Z,9.70
2023-01-08T08:55:17.574Z,9.70
2023-01-08T08:57:46.350Z,9.70
2023-01-08T09:00:14.513Z,9.60
2023-01-08T09:02:41.657Z,9.70
2023-01-08T09:05:08.852Z,9.70
2023-01-08T09:07:36.161Z,9.70
2023-01-08T09:10:04.087Z,9.60
2023-01-08T09:12:33.520Z,9.60
2023-01-08T09:15:00.614Z,9.60
2023-01-08T09:17:27.826Z,9.70
2023-01-08T09:19:57.515Z,9.70
2023-01-08T09:22:24.492Z,9.80
2023-01-08T09:24:55.245Z,9.90
2023-01-08T09:27:23.915Z,10.00
2023-01-08T09:29:50.869Z,10.00
2023-01-08T09:32:17.941Z,10.10
2023-01-08T09:34:44.915Z,10.00
2023-01-08T09:37:11.988Z,10.00
2023-01-08T09:39:41.162Z,10.00
2023-01-08T09:42:13.335Z,10.10
2023-01-08T09:44:46.321Z,10.10
2023-01-08T09:47:38.232Z,10.20
2023-01-08T09:50:13.274Z,10.30
2023-01-08T09:52:42.795Z,10.50
2023-01-08T09:55:15.295Z,10.50
2023-01-08T09:57:43.794Z,10.70
2023-01-08T10:00:22.457Z,10.60
2023-01-08T10:02:49.553Z,10.80
2023-01-08T10:05:18.440Z,10.80
2023-01-08T10:07:46.615Z,10.90
2023-01-08T10:10:29.261Z,10.90
2023-01-08T10:12:56.472Z,10.80
2023-01-08T10:15:23.837Z,10.90
2023-01-08T10:18:04.732Z,11.20
2023-01-08T10:20:32.768Z,11.10
2023-01-08T10:23:17.072Z,11.20
2023-01-08T10:25:56.152Z,11.40
2023-01-08T10:28:29.488Z,11.60
2023-01-08T10:31:12.159Z,11.60
2023-01-08T10:33:48.214Z,11.60
2023-01-08T10:36:23.379Z,11.70
2023-01-08T10:39:00.370Z,11.80
2023-01-08T10:41:53.867Z,11.90
2023-01-08T10:44:29.775Z,12.10
2023-01-08T10:47:00.205Z,12.00
2023-01-08T10:49:33.234Z,11.90
2023-01-08T10:52:01.014Z,12.20
2023-01-08T10:54:31.679Z,12.20
2023-01-08T10:57:01.062Z,12.20
2023-01-08T10:59:29.369Z,12.10
2023-01-08T11:01:58.278Z,12.10
2023-01-08T11:04:35.030Z,12.10
2023-01-08T11:07:04.677Z,12.30
2023-01-08T11:09:34.827Z,12.50
2023-01-08T11:12:02.015Z,12.40
2023-01-08T11:14:28.896Z,12.50
2023-01-08T11:16:56.563Z,12.50
2023-01-08T11:19:32.047Z,12.30
2023-01-08T11:22:19.067Z,12.40
2023-01-08T11:24:47.323Z,12.40
2023-01-08T11:27:26.814Z,12.40
2023-01-08T11:30:13.596Z,12.40
2023-01-08T11:32:57.817Z,12.00
2023-01-08T11:35:31.408Z,12.00
2023-01-08T11:38:00.578Z,12.20
2023-01-08T11:40:52.199Z,12.20
2023-01-08T11:43:37.527Z,12.10
2023-01-08T11:46:28.750Z,12.10
2023-01-08T11:49:01.805Z,12.10
2023-01-08T11:51:40.555Z,11.80
2023-01-08T11:54:26.236Z,11.70
2023-01-08T11:57:24.721Z,11.80
2023-01-08T11:59:57.502Z,11.90
2023-01-08T12:02:34.882Z,12.10
2023-01-08T12:05:26.207Z,11.90
2023-01-08T12:08:04.005Z,12.20
2023-01-08T12:11:00.266Z,12.40
2023-01-08T12:13:43.974Z,12.40
2023-01-08T12:16:41.772Z,12.30
2023-01-08T12:19:23.971Z,12.00
2023-01-08T12:22:02.776Z,11.70
2023-01-08T12:24:33.815Z,11.50
2023-01-08T12:27:17.192Z,11.30
2023-01-08T12:30:01.535Z,11.40
2023-01-08T12:32:40.063Z,11.50
2023-01-08T12:35:25.712Z,11.50
2023-01-08T12:38:01.909Z,11.80
2023-01-08T12:40:47.229Z,11.70
2023-01-08T12:43:25.963Z,11.60
2023-01-08T12:45:57.038Z,11.70
2023-01-08T12:48:37.983Z,11.70
2023-01-08T12:51:21.031Z,11.60
2023-01-08T12:53:59.796Z,11.60
2023-01-08T12:56:46.329Z,11.70
2023-01-08T12:59:28.788Z,11.60
2023-01-08T13:02:06.156Z,11.40
2023-01-08T13:04:47.952Z,11.50
2023-01-08T13:07:26.337Z,11.50
2023-01-08T13:10:00.515Z,11.70
2023-01-08T13:12:40.370Z,12.00
2023-01-08T13:15:08.764Z,12.00
2023-01-08T13:17:37.830Z,12.00
2023-01-08T13:20:08.370Z,12.20
2023-01-08T13:22:37.494Z,12.40
2023-01-08T13:25:17.003Z,12.60
2023-01-08T13:27:46.137Z,12.40
2023-01-08T13:30:34.467Z,12.50
2023-01-08T13:33:01.873Z,12.70
2023-01-08T13:35:31.440Z,12.80
2023-01-08T13:38:10.835Z,12.60
2023-01-08T13:40:38.127Z,12.50
2023-01-08T13:43:12.130Z,12.60
2023-01-08T13:45:39.695Z,12.50
2023-01-08T13:48:06.812Z,12.50
2023-01-08T13:50:36.629Z,12.70
2023-01-08T13:53:04.655Z,12.80
2023-01-08T13:55:36.606Z,12.70
2023-01-08T13:58:18.163Z,12.60
2023-01-08T14:00:46.646Z,12.60
2023-01-08T14:03:26.758Z,12.50
2023-01-08T14:06:08.057Z,12.20
2023-01-08T14:08:35.103Z,12.20
2023-01-08T14:11:04.785Z,12.00
2023-01-08T14:13:34.348Z,12.00
2023-01-08T14:16:05.720Z,11.80
2023-01-08T14:18:33.059Z,11.70
2023-01-08T14:21:00.008Z,11.60
2023-01-08T14:23:30.393Z,11.60
2023-01-08T14:26:02.153Z,11.60
2023-01-08T14:28:29.572Z,11.70
2023-01-08T14:30:57.940Z,11.70
2023-01-08T14:33:30.808Z,11.80
2023-01-08T14:35:58.377Z,11.70
2023-01-08T14:38:25.437Z,11.90
2023-01-08T14:41:11.464Z,11.90
2023-01-08T14:43:49.873Z,11.80
2023-01-08T14:46:26.305Z,11.80
2023-01-08T14:48:57.337Z,11.60
2023-01-08T14:51:30.767Z,11.60
2023-01-08T14:54:01.654Z,11.60
2023-01-08T14:56:32.562Z,11.50
2023-01-08T14:59:00.683Z,11.30
2023-01-08T15:01:31.123Z,11.40
2023-01-08T15:04:18.945Z,11.50
2023-01-08T15:06:46.533Z,11.60
2023-01-08T15:09:21.203Z,11.50
2023-01-08T15:11:55.468Z,11.50
2023-01-08T15:14:27.792Z,11.50
2023-01-08T15:17:05.177Z,11.50
2023-01-08T15:19:39.308Z,11.50
2023-01-08T15:22:16.455Z,11.30
2023-01-08T15:24:44.792Z,11.30
2023-01-08T15:27:19.800Z,11.40
2023-01-08T15:29:51.186Z,11.40
2023-01-08T15:32:18.059Z,11.30
2023-01-08T15:34:46.325Z,11.30
2023-01-08T15:37:14.893Z,11.30
2023-01-08T15:39:42.717Z,11.30
2023-01-08T15:42:37.174Z,11.30
2023-01-08T15:45:07.408Z,11.40
2023-01-08T15:47:34.230Z,11.30
2023-01-08T15:50:01.279Z,11.30
2023-01-08T15:52:29.768Z,11.30
2023-01-08T15:55:00.837Z,11.10
2023-01-08T15:57:31.960Z,11.20
2023-01-08T15:59:59.145Z,11.20
2023-01-08T16:02:26.297Z,11.10
2023-01-08T16:04:54.719Z,11.20
2023-01-08T16:07:22.293Z,11.10
2023-01-08T16:09:49.355Z,11.10
2023-01-08T16:12:16.178Z,11.20
2023-01-08T16:14:43.006Z,11.20
2023-01-08T16:17:10.320Z,11.20
2023-01-08T16:19:37.421Z,11.10
2023-01-08T16:22:04.712Z,11.10
2023-01-08T16:24:32.041Z,11.10
2023-01-08T16:26:58.985Z,11.20
2023-01-08T16:29:27.811Z,11.00
2023-01-08T16:31:55.418Z,11.00
2023-01-08T16:34:25.359Z,10.90
2023-01-08T16:36:52.458Z,11.00
2023-01-08T16:39:19.531Z,10.90
2023-01-08T16:42:03.738Z,11.00
2023-01-08T16:44:32.388Z,11.10
2023-01-08T16:47:01.454Z,11.10
2023-01-08T16:49:28.520Z,11.00
2023-01-08T16:51:55.509Z,11.00
2023-01-08T16:54:22.812Z,11.00
2023-01-08T16:56:49.873Z,11.00
2023-01-08T16:59:23.218Z,11.10
2023-01-08T17:01:51.245Z,11.10
2023-01-08T17:04:18.433Z,11.10
2023-01-08T17:06:46.839Z,11.10
2023-01-08T17:09:14.955Z,11.10
2023-01-08T17:11:42.428Z,11.10
2023-01-08T17:14:10.321Z,11.30
2023-01-08T17:16:37.208Z,11.30
2023-01-08T17:19:04.276Z,11.30
2023-01-08T17:21:31.294Z,11.20
2023-01-08T17:23:58.366Z,11.20
2023-01-08T17:26:25.518Z,11.30
2023-01-08T17:28:53.093Z,11.20
2023-01-08T17:31:20.591Z,11.40
2023-01-08T17:33:52.157Z,11.30
2023-01-08T17:36:25.089Z,11.20
2023-01-08T17:38:55.058Z,11.20
2023-01-08T17:41:41.200Z,11.30
2023-01-08T17:44:09.787Z,11.20
2023-01-08T17:46:39.682Z,11.00
2023-01-08T17:49:06.458Z,11.10
2023-01-08T17:51:33.681Z,11.10
2023-01-08T17:54:01.653Z,11.10
2023-01-08T17:56:28.618Z,11.10
2023-01-08T17:58:55.452Z,11.20
2023-01-08T18:01:22.558Z,11.10
2023-01-08T18:03:49.683Z,11.10
2023-01-08T18:06:16.651Z,11.00
2023-01-08T18:08:43.573Z,11.00
2023-01-08T18:11:10.918Z,11.00
2023-01-08T18:13:38.064Z,11.00
2023-01-08T18:16:07.591Z,10.90
2023-01-08T18:18:35.389Z,10.90
2023-01-08T18:21:02.396Z,10.90
2023-01-08T18:23:29.545Z,10.90
2023-01-08T18:25:56.847Z,10.80
2023-01-08T18:28:24.190Z,10.90
2023-01-08T18:30:51.517Z,10.90
2023-01-08T18:33:18.318Z,10.70
2023-01-08T18:35:45.350Z,10.60
2023-01-08T18:38:15.940Z,10.70
2023-01-08T18:40:43.499Z,10.70
2023-01-08T18:43:11.040Z,10.70
2023-01-08T18:45:39.617Z,10.70
2023-01-08T18:48:07.761Z,10.60
2023-01-08T18:50:34.742Z,10.60
2023-01-08T18:53:04.591Z,10.70
2023-01-08T18:55:31.564Z,10.70
2023-01-08T18:57:58.400Z,10.70
2023-01-08T19:00:26.542Z,10.60
2023-01-08T19:02:54.213Z,10.60
2023-01-08T19:05:23.513Z,10.60
2023-01-08T19:07:50.765Z,10.50
2023-01-08T19:10:17.855Z,10.70
2023-01-08T19:12:45.183Z,10.70
2023-01-08T19:15:12.576Z,10.70
2023-01-08T19:17:39.723Z,10.70
2023-01-08T19:20:07.224Z,10.60
2023-01-08T19:22:34.141Z,10.70
2023-01-08T19:25:01.261Z,10.70
2023-01-08T19:27:28.903Z,10.70
2023-01-08T19:29:56.855Z,10.70
2023-01-08T19:32:23.848Z,10.60
2023-01-08T19:34:50.756Z,10.60
2023-01-08T19:37:18.469Z,10.20
2023-01-08T19:39:45.500Z,10.10
2023-01-08T19:42:30.771Z,10.00
2023-01-08T19:44:57.887Z,9.90
2023-01-08T19:47:25.134Z,9.90
2023-01-08T19:49:52.157Z,9.90
2023-01-08T19:52:19.194Z,9.80
2023-01-08T19:54:46.502Z,9.80
2023-01-08T19:57:13.808Z,9.70
2023-01-08T19:59:40.777Z,9.60
2023-01-08T20:02:09.289Z,9.40
2023-01-08T20:04:43.868Z,9.30
2023-01-08T20:07:12.136Z,9.20
2023-01-08T20:09:39.660Z,9.20
2023-01-08T20:12:11.005Z,9.20
2023-01-08T20:14:38.274Z,9.10
2023-01-08T20:17:05.522Z,9.10
2023-01-08T20:19:32.848Z,9.20
2023-01-08T20:21:59.891Z,9.20
2023-01-08T20:24:26.972Z,9.00
2023-01-08T20:26:53.944Z,9.00
2023-01-08T20:29:21.290Z,9.00
2023-01-08T20:31:56.690Z,8.90
2023-01-08T20:34:24.539Z,9.00
2023-01-08T20:36:52.174Z,9.20
2023-01-08T20:39:19.529Z,9.20
2023-01-08T20:41:55.838Z,9.10
2023-01-08T20:44:31.075Z,9.30
2023-01-08T20:46:58.121Z,9.40
2023-01-08T20:49:26.682Z,9.30
2023-01-08T20:51:59.171Z,9.40
2023-01-08T20:54:27.327Z,9.10
2023-01-08T20:56:58.717Z,8.90
2023-01-08T20:59:26.248Z,9.10
2023-01-08T21:01:53.813Z,9.10
2023-01-08T21:04:20.999Z,9.10
2023-01-08T21:06:47.904Z,9.10
2023-01-08T21:09:16.596Z,9.10
2023-01-08T21:11:43.758Z,9.20
2023-01-08T21:14:11.209Z,9.10
2023-01-08T21:16:39.744Z,9.10
2023-01-08T21:19:09.872Z,8.90
2023-01-08T21:21:40.318Z,8.90
2023-01-08T21:24:10.007Z,8.70
2023-01-08T21:26:38.179Z,8.70
2023-01-08T21:29:06.670Z,8.60
2023-01-08T21:31:34.735Z,8.60
2023-01-08T21:34:05.845Z,8.60
2023-01-08T21:36:42.463Z,8.60
2023-01-08T21:39:11.194Z,8.60
2023-01-08T21:41:56.527Z,8.60
2023-01-08T21:44:44.364Z,8.60
2023-01-08T21:47:16.822Z,8.50
2023-01-08T21:49:45.142Z,8.50
2023-01-08T21:52:31.085Z,8.60
2023-01-08T21:54:58.355Z,8.50
2023-01-08T21:57:27.994Z,8.60
2023-01-08T21:59:56.563Z,8.60
2023-01-08T22:02:24.553Z,8.60
2023-01-08T22:04:55.330Z,8.60
2023-01-08T22:07:22.210Z,8.60
2023-01-08T22:09:49.029Z,8.50
2023-01-08T22:12:16.887Z,8.30
2023-01-08T22:14:43.964Z,8.30
2023-01-08T22:17:11.207Z,8.20
2023-01-08T22:19:39.339Z,8.30
2023-01-08T22:22:10.130Z,8.30
2023-01-08T22:24:37.554Z,8.30
2023-01-08T22:27:04.482Z,8.30
2023-01-08T22:29:31.913Z,8.40
2023-01-08T22:32:01.443Z,8.50
2023-01-08T22:34:32.383Z,8.50
2023-01-08T22:36:59.333Z,8.50
2023-01-08T22:39:26.718Z,8.50
2023-01-08T22:41:53.820Z,8.40
2023-01-08T22:44:20.791Z,8.40
2023-01-08T22:46:47.759Z,8.30
2023-01-08T22:49:15.082Z,8.30
2023-01-08T22:51:45.214Z,8.30
2023-01-08T22:54:13.699Z,8.30
2023-01-08T22:56:40.760Z,8.10
2023-01-08T22:59:07.627Z,8.10
2023-01-08T23:01:34.551Z,8.20
2023-01-08T23:04:01.805Z,8.20
2023-01-08T23:06:30.746Z,8.40
2023-01-08T23:08:58.827Z,8.40
2023-01-08T23:11:26.876Z,8.30
2023-01-08T23:13:55.957Z,8.30
2023-01-08T23:16:25.301Z,8.20
2023-01-08T23:18:56.612Z,8.20
2023-01-08T23:21:26.462Z,8.20
2023-01-08T23:23:53.368Z,8.20
2023-01-08T23:26:26.426Z,8.10
2023-01-08T23:28:54.312Z,7.90
2023-01-08T23:31:24.380Z,8.00
2023-01-08T23:33:52.228Z,8.00
2023-01-08T23:36:21.270Z,8.00
2023-01-08T23:38:50.485Z,7.90
2023-01-08T23:41:18.383Z,7.90
2023-01-08T23:43:46.143Z,7.90
2023-01-08T23:46:13.717Z,7.80
2023-01-08T23:48:40.855Z,7.80
2023-01-08T23:51:08.385Z,7.80
2023-01-08T23:53:35.377Z,7.90
2023-01-08T23:56:02.341Z,7.90
2023-01-08T23:58:29.397Z,7.80
